sensor_id;sensor_type;location;lat;lon;timestamp;P1;durP1;ratioP1;P2;durP2;ratioP2
52618;SDS011;38513;53.234;6.568;2023-05-16T00:01:56;15.30;;;2.80;;
52618;SDS011;38513;53.234;6.568;2023-05-16T00:04:22;20.08;;;3.22;;
52618;SDS011;38513;53.234;6.568;2023-05-16T00:06:48;20.40;;;3.78;;
52618;SDS011;38513;53.234;6.568;2023-05-16T00:09:14;19.37;;;3.33;;
52618;SDS011;38513;53.234;6.568;2023-05-16T00:11:41;21.35;;;3.78;;
52618;SDS011;38513;53.234;6.568;2023-05-16T00:14:10;17.40;;;2.92;;
52618;SDS011;38513;53.234;6.568;2023-05-16T00:16:36;15.93;;;2.80;;
52618;SDS011;38513;53.234;6.568;2023-05-16T00:19:08;14.80;;;2.90;;
52618;SDS011;38513;53.234;6.568;2023-05-16T00:21:35;15.15;;;2.90;;
52618;SDS011;38513;53.234;6.568;2023-05-16T00:24:01;17.83;;;3.08;;
52618;SDS011;38513;53.234;6.568;2023-05-16T00:26:28;16.27;;;2.88;;
52618;SDS011;38513;53.234;6.568;2023-05-16T00:28:54;16.13;;;3.00;;
52618;SDS011;38513;53.234;6.568;2023-05-16T00:31:20;18.80;;;3.20;;
52618;SDS011;38513;53.234;6.568;2023-05-16T00:33:46;17.27;;;2.90;;
52618;SDS011;38513;53.234;6.568;2023-05-16T00:36:13;19.23;;;3.10;;
52618;SDS011;38513;53.234;6.568;2023-05-16T00:38:39;14.90;;;2.95;;
52618;SDS011;38513;53.234;6.568;2023-05-16T00:41:05;18.00;;;2.80;;
52618;SDS011;38513;53.234;6.568;2023-05-16T00:43:31;16.55;;;2.90;;
52618;SDS011;38513;53.234;6.568;2023-05-16T00:45:57;15.05;;;2.95;;
52618;SDS011;38513;53.234;6.568;2023-05-16T00:48:27;16.65;;;2.80;;
52618;SDS011;38513;53.234;6.568;2023-05-16T00:51:09;17.08;;;2.92;;
52618;SDS011;38513;53.234;6.568;2023-05-16T00:53:36;19.00;;;3.05;;
52618;SDS011;38513;53.234;6.568;2023-05-16T00:56:04;17.65;;;3.03;;
52618;SDS011;38513;53.234;6.568;2023-05-16T00:58:33;15.73;;;2.90;;
52618;SDS011;38513;53.234;6.568;2023-05-16T01:01:00;16.98;;;3.40;;
52618;SDS011;38513;53.234;6.568;2023-05-16T01:03:28;18.20;;;2.72;;
52618;SDS011;38513;53.234;6.568;2023-05-16T01:05:54;17.45;;;2.58;;
52618;SDS011;38513;53.234;6.568;2023-05-16T01:08:20;15.40;;;2.70;;
52618;SDS011;38513;53.234;6.568;2023-05-16T01:13:45;18.52;;;3.08;;
52618;SDS011;38513;53.234;6.568;2023-05-16T01:16:19;14.55;;;2.97;;
52618;SDS011;38513;53.234;6.568;2023-05-16T01:21:26;18.77;;;3.03;;
52618;SDS011;38513;53.234;6.568;2023-05-16T01:24:08;14.82;;;2.67;;
52618;SDS011;38513;53.234;6.568;2023-05-16T01:26:39;17.15;;;2.90;;
52618;SDS011;38513;53.234;6.568;2023-05-16T01:29:06;20.60;;;3.03;;
52618;SDS011;38513;53.234;6.568;2023-05-16T01:31:32;14.57;;;2.30;;
52618;SDS011;38513;53.234;6.568;2023-05-16T01:33:58;15.60;;;2.90;;
52618;SDS011;38513;53.234;6.568;2023-05-16T01:36:25;16.92;;;2.95;;
52618;SDS011;38513;53.234;6.568;2023-05-16T01:38:58;16.85;;;2.70;;
52618;SDS011;38513;53.234;6.568;2023-05-16T01:41:27;15.13;;;2.88;;
52618;SDS011;38513;53.234;6.568;2023-05-16T01:43:58;14.30;;;3.10;;
52618;SDS011;38513;53.234;6.568;2023-05-16T01:46:26;17.55;;;3.13;;
52618;SDS011;38513;53.234;6.568;2023-05-16T01:49:06;19.77;;;2.60;;
52618;SDS011;38513;53.234;6.568;2023-05-16T01:51:40;18.52;;;3.53;;
52618;SDS011;38513;53.234;6.568;2023-05-16T01:54:11;17.83;;;3.22;;
52618;SDS011;38513;53.234;6.568;2023-05-16T01:56:38;20.45;;;3.72;;
52618;SDS011;38513;53.234;6.568;2023-05-16T01:59:08;18.15;;;3.05;;
52618;SDS011;38513;53.234;6.568;2023-05-16T02:01:36;16.27;;;3.35;;
52618;SDS011;38513;53.234;6.568;2023-05-16T02:04:02;21.05;;;3.28;;
52618;SDS011;38513;53.234;6.568;2023-05-16T02:06:28;19.05;;;3.15;;
52618;SDS011;38513;53.234;6.568;2023-05-16T02:08:54;19.25;;;2.90;;
52618;SDS011;38513;53.234;6.568;2023-05-16T02:11:21;16.52;;;3.10;;
52618;SDS011;38513;53.234;6.568;2023-05-16T02:13:47;14.77;;;3.20;;
52618;SDS011;38513;53.234;6.568;2023-05-16T02:16:13;19.17;;;3.22;;
52618;SDS011;38513;53.234;6.568;2023-05-16T02:18:39;20.75;;;3.92;;
52618;SDS011;38513;53.234;6.568;2023-05-16T02:21:06;17.20;;;3.00;;
52618;SDS011;38513;53.234;6.568;2023-05-16T02:23:38;17.58;;;2.92;;
52618;SDS011;38513;53.234;6.568;2023-05-16T02:26:08;14.13;;;2.97;;
52618;SDS011;38513;53.234;6.568;2023-05-16T02:28:34;17.83;;;3.00;;
52618;SDS011;38513;53.234;6.568;2023-05-16T02:31:06;18.33;;;3.17;;
52618;SDS011;38513;53.234;6.568;2023-05-16T02:33:42;17.48;;;3.33;;
52618;SDS011;38513;53.234;6.568;2023-05-16T02:36:09;20.55;;;3.10;;
52618;SDS011;38513;53.234;6.568;2023-05-16T02:38:35;16.95;;;3.13;;
52618;SDS011;38513;53.234;6.568;2023-05-16T02:41:01;16.63;;;3.17;;
52618;SDS011;38513;53.234;6.568;2023-05-16T02:43:27;22.48;;;3.38;;
52618;SDS011;38513;53.234;6.568;2023-05-16T02:45:53;21.48;;;3.40;;
52618;SDS011;38513;53.234;6.568;2023-05-16T02:48:19;18.05;;;3.00;;
52618;SDS011;38513;53.234;6.568;2023-05-16T02:50:45;17.40;;;3.10;;
52618;SDS011;38513;53.234;6.568;2023-05-16T02:53:12;17.58;;;3.60;;
52618;SDS011;38513;53.234;6.568;2023-05-16T02:55:38;16.88;;;3.28;;
52618;SDS011;38513;53.234;6.568;2023-05-16T02:58:04;15.95;;;2.85;;
52618;SDS011;38513;53.234;6.568;2023-05-16T03:00:33;16.73;;;2.90;;
52618;SDS011;38513;53.234;6.568;2023-05-16T03:02:59;17.63;;;3.50;;
52618;SDS011;38513;53.234;6.568;2023-05-16T03:05:26;17.87;;;2.70;;
52618;SDS011;38513;53.234;6.568;2023-05-16T03:07:52;18.75;;;3.28;;
52618;SDS011;38513;53.234;6.568;2023-05-16T03:10:18;21.77;;;3.03;;
52618;SDS011;38513;53.234;6.568;2023-05-16T03:12:47;15.48;;;3.50;;
52618;SDS011;38513;53.234;6.568;2023-05-16T03:15:13;15.90;;;3.30;;
52618;SDS011;38513;53.234;6.568;2023-05-16T03:17:39;17.42;;;3.17;;
52618;SDS011;38513;53.234;6.568;2023-05-16T03:20:06;18.13;;;3.15;;
52618;SDS011;38513;53.234;6.568;2023-05-16T03:22:33;15.63;;;3.05;;
52618;SDS011;38513;53.234;6.568;2023-05-16T03:24:59;20.05;;;3.38;;
52618;SDS011;38513;53.234;6.568;2023-05-16T03:27:25;18.30;;;3.37;;
52618;SDS011;38513;53.234;6.568;2023-05-16T03:29:52;18.15;;;3.33;;
52618;SDS011;38513;53.234;6.568;2023-05-16T03:32:18;16.60;;;2.80;;
52618;SDS011;38513;53.234;6.568;2023-05-16T03:34:44;16.55;;;2.90;;
52618;SDS011;38513;53.234;6.568;2023-05-16T03:37:10;16.83;;;2.80;;
52618;SDS011;38513;53.234;6.568;2023-05-16T03:39:39;16.33;;;2.78;;
52618;SDS011;38513;53.234;6.568;2023-05-16T03:42:05;17.38;;;2.92;;
52618;SDS011;38513;53.234;6.568;2023-05-16T03:44:31;17.38;;;3.05;;
52618;SDS011;38513;53.234;6.568;2023-05-16T03:46:58;19.40;;;3.22;;
52618;SDS011;38513;53.234;6.568;2023-05-16T03:49:25;18.03;;;2.87;;
52618;SDS011;38513;53.234;6.568;2023-05-16T03:51:54;16.73;;;3.10;;
52618;SDS011;38513;53.234;6.568;2023-05-16T03:54:20;15.30;;;3.00;;
52618;SDS011;38513;53.234;6.568;2023-05-16T03:56:47;16.00;;;3.20;;
52618;SDS011;38513;53.234;6.568;2023-05-16T03:59:13;14.02;;;2.90;;
52618;SDS011;38513;53.234;6.568;2023-05-16T04:01:39;15.40;;;3.10;;
52618;SDS011;38513;53.234;6.568;2023-05-16T04:04:05;14.30;;;2.67;;
52618;SDS011;38513;53.234;6.568;2023-05-16T04:06:31;16.58;;;3.00;;
52618;SDS011;38513;53.234;6.568;2023-05-16T04:08:58;15.10;;;3.10;;
52618;SDS011;38513;53.234;6.568;2023-05-16T04:11:24;17.90;;;3.00;;
52618;SDS011;38513;53.234;6.568;2023-05-16T04:13:50;13.48;;;2.72;;
52618;SDS011;38513;53.234;6.568;2023-05-16T04:16:18;17.85;;;3.13;;
52618;SDS011;38513;53.234;6.568;2023-05-16T04:18:44;17.08;;;2.90;;
52618;SDS011;38513;53.234;6.568;2023-05-16T04:21:11;14.38;;;2.80;;
52618;SDS011;38513;53.234;6.568;2023-05-16T04:23:41;16.77;;;3.15;;
52618;SDS011;38513;53.234;6.568;2023-05-16T04:26:10;14.38;;;2.80;;
52618;SDS011;38513;53.234;6.568;2023-05-16T04:28:36;17.23;;;3.47;;
52618;SDS011;38513;53.234;6.568;2023-05-16T04:31:09;16.02;;;2.67;;
52618;SDS011;38513;53.234;6.568;2023-05-16T04:33:35;15.57;;;2.50;;
52618;SDS011;38513;53.234;6.568;2023-05-16T04:36:01;18.33;;;3.17;;
52618;SDS011;38513;53.234;6.568;2023-05-16T04:38:28;13.73;;;2.72;;
52618;SDS011;38513;53.234;6.568;2023-05-16T04:40:54;17.67;;;2.80;;
52618;SDS011;38513;53.234;6.568;2023-05-16T04:43:20;17.85;;;3.00;;
52618;SDS011;38513;53.234;6.568;2023-05-16T04:45:47;16.85;;;2.92;;
52618;SDS011;38513;53.234;6.568;2023-05-16T04:48:18;17.02;;;2.92;;
52618;SDS011;38513;53.234;6.568;2023-05-16T04:50:44;14.25;;;2.65;;
52618;SDS011;38513;53.234;6.568;2023-05-16T04:53:10;15.48;;;2.50;;
52618;SDS011;38513;53.234;6.568;2023-05-16T04:55:39;13.73;;;2.65;;
52618;SDS011;38513;53.234;6.568;2023-05-16T04:58:05;14.25;;;2.60;;
52618;SDS011;38513;53.234;6.568;2023-05-16T05:00:32;14.48;;;2.80;;
52618;SDS011;38513;53.234;6.568;2023-05-16T05:02:58;15.38;;;2.92;;
52618;SDS011;38513;53.234;6.568;2023-05-16T05:05:24;16.90;;;2.60;;
52618;SDS011;38513;53.234;6.568;2023-05-16T05:07:50;13.63;;;2.78;;
52618;SDS011;38513;53.234;6.568;2023-05-16T05:10:16;15.23;;;2.65;;
52618;SDS011;38513;53.234;6.568;2023-05-16T05:12:43;14.73;;;2.65;;
52618;SDS011;38513;53.234;6.568;2023-05-16T05:15:15;14.10;;;2.60;;
52618;SDS011;38513;53.234;6.568;2023-05-16T05:17:41;16.15;;;2.70;;
52618;SDS011;38513;53.234;6.568;2023-05-16T05:20:10;12.63;;;2.72;;
52618;SDS011;38513;53.234;6.568;2023-05-16T05:22:37;15.38;;;2.65;;
52618;SDS011;38513;53.234;6.568;2023-05-16T05:25:04;13.33;;;2.63;;
52618;SDS011;38513;53.234;6.568;2023-05-16T05:27:30;11.45;;;2.45;;
52618;SDS011;38513;53.234;6.568;2023-05-16T05:29:57;14.90;;;3.03;;
52618;SDS011;38513;53.234;6.568;2023-05-16T05:32:23;13.45;;;2.58;;
52618;SDS011;38513;53.234;6.568;2023-05-16T05:34:49;14.68;;;2.13;;
52618;SDS011;38513;53.234;6.568;2023-05-16T05:37:16;14.43;;;2.63;;
52618;SDS011;38513;53.234;6.568;2023-05-16T05:39:42;12.68;;;2.38;;
52618;SDS011;38513;53.234;6.568;2023-05-16T05:42:09;11.43;;;2.10;;
52618;SDS011;38513;53.234;6.568;2023-05-16T05:44:36;15.20;;;2.75;;
52618;SDS011;38513;53.234;6.568;2023-05-16T05:47:03;12.68;;;2.35;;
52618;SDS011;38513;53.234;6.568;2023-05-16T05:49:30;12.68;;;2.40;;
52618;SDS011;38513;53.234;6.568;2023-05-16T05:51:56;15.43;;;2.38;;
52618;SDS011;38513;53.234;6.568;2023-05-16T05:54:22;12.35;;;2.25;;
52618;SDS011;38513;53.234;6.568;2023-05-16T05:56:49;13.82;;;2.33;;
52618;SDS011;38513;53.234;6.568;2023-05-16T05:59:18;15.27;;;2.40;;
52618;SDS011;38513;53.234;6.568;2023-05-16T06:01:44;16.02;;;2.50;;
52618;SDS011;38513;53.234;6.568;2023-05-16T06:04:14;11.45;;;2.20;;
52618;SDS011;38513;53.234;6.568;2023-05-16T06:06:40;13.75;;;2.25;;
52618;SDS011;38513;53.234;6.568;2023-05-16T06:09:06;12.47;;;2.30;;
52618;SDS011;38513;53.234;6.568;2023-05-16T06:11:33;14.40;;;2.60;;
52618;SDS011;38513;53.234;6.568;2023-05-16T06:13:59;13.13;;;2.58;;
52618;SDS011;38513;53.234;6.568;2023-05-16T06:16:25;11.43;;;2.42;;
52618;SDS011;38513;53.234;6.568;2023-05-16T06:18:52;14.73;;;2.33;;
52618;SDS011;38513;53.234;6.568;2023-05-16T06:21:21;14.02;;;2.58;;
52618;SDS011;38513;53.234;6.568;2023-05-16T06:23:48;12.73;;;2.05;;
52618;SDS011;38513;53.234;6.568;2023-05-16T06:26:14;12.70;;;2.30;;
52618;SDS011;38513;53.234;6.568;2023-05-16T06:28:41;12.45;;;2.00;;
52618;SDS011;38513;53.234;6.568;2023-05-16T06:31:07;11.38;;;2.03;;
52618;SDS011;38513;53.234;6.568;2023-05-16T06:33:33;11.57;;;1.75;;
52618;SDS011;38513;53.234;6.568;2023-05-16T06:36:00;13.10;;;2.10;;
52618;SDS011;38513;53.234;6.568;2023-05-16T06:38:28;12.15;;;1.70;;
52618;SDS011;38513;53.234;6.568;2023-05-16T06:40:55;15.10;;;2.23;;
52618;SDS011;38513;53.234;6.568;2023-05-16T06:43:22;10.80;;;2.03;;
52618;SDS011;38513;53.234;6.568;2023-05-16T06:45:48;13.27;;;2.57;;
52618;SDS011;38513;53.234;6.568;2023-05-16T06:48:16;11.30;;;2.13;;
52618;SDS011;38513;53.234;6.568;2023-05-16T06:50:45;11.82;;;2.03;;
52618;SDS011;38513;53.234;6.568;2023-05-16T06:53:12;13.18;;;2.00;;
52618;SDS011;38513;53.234;6.568;2023-05-16T06:55:40;11.45;;;1.98;;
52618;SDS011;38513;53.234;6.568;2023-05-16T06:58:06;8.73;;;1.83;;
52618;SDS011;38513;53.234;6.568;2023-05-16T07:00:35;11.65;;;2.00;;
52618;SDS011;38513;53.234;6.568;2023-05-16T07:03:01;11.23;;;2.20;;
52618;SDS011;38513;53.234;6.568;2023-05-16T07:05:27;11.20;;;2.20;;
52618;SDS011;38513;53.234;6.568;2023-05-16T07:07:54;10.93;;;1.80;;
52618;SDS011;38513;53.234;6.568;2023-05-16T07:10:20;12.90;;;2.43;;
52618;SDS011;38513;53.234;6.568;2023-05-16T07:12:46;11.77;;;2.20;;
52618;SDS011;38513;53.234;6.568;2023-05-16T07:15:13;13.95;;;2.40;;
52618;SDS011;38513;53.234;6.568;2023-05-16T07:17:39;11.88;;;1.92;;
52618;SDS011;38513;53.234;6.568;2023-05-16T07:20:05;11.52;;;2.13;;
52618;SDS011;38513;53.234;6.568;2023-05-16T07:22:35;11.52;;;2.08;;
52618;SDS011;38513;53.234;6.568;2023-05-16T07:25:01;12.73;;;2.10;;
52618;SDS011;38513;53.234;6.568;2023-05-16T07:27:28;11.77;;;2.22;;
52618;SDS011;38513;53.234;6.568;2023-05-16T07:29:56;14.82;;;2.47;;
52618;SDS011;38513;53.234;6.568;2023-05-16T07:32:22;12.20;;;1.90;;
52618;SDS011;38513;53.234;6.568;2023-05-16T07:34:48;12.15;;;2.20;;
52618;SDS011;38513;53.234;6.568;2023-05-16T07:37:14;9.30;;;1.80;;
52618;SDS011;38513;53.234;6.568;2023-05-16T07:39:41;13.02;;;2.08;;
52618;SDS011;38513;53.234;6.568;2023-05-16T07:42:07;12.15;;;2.53;;
52618;SDS011;38513;53.234;6.568;2023-05-16T07:44:34;13.43;;;2.63;;
52618;SDS011;38513;53.234;6.568;2023-05-16T07:47:00;12.68;;;2.72;;
52618;SDS011;38513;53.234;6.568;2023-05-16T07:49:27;10.30;;;2.22;;
52618;SDS011;38513;53.234;6.568;2023-05-16T07:51:53;12.38;;;2.22;;
52618;SDS011;38513;53.234;6.568;2023-05-16T07:54:19;13.63;;;2.30;;
52618;SDS011;38513;53.234;6.568;2023-05-16T07:56:45;12.82;;;2.20;;
52618;SDS011;38513;53.234;6.568;2023-05-16T07:59:12;15.85;;;2.60;;
52618;SDS011;38513;53.234;6.568;2023-05-16T08:01:38;12.75;;;2.35;;
52618;SDS011;38513;53.234;6.568;2023-05-16T08:04:04;9.93;;;2.30;;
52618;SDS011;38513;53.234;6.568;2023-05-16T08:06:31;13.45;;;2.40;;
52618;SDS011;38513;53.234;6.568;2023-05-16T08:08:58;16.10;;;2.25;;
52618;SDS011;38513;53.234;6.568;2023-05-16T08:11:24;13.17;;;2.77;;
52618;SDS011;38513;53.234;6.568;2023-05-16T08:13:51;12.63;;;2.10;;
52618;SDS011;38513;53.234;6.568;2023-05-16T08:16:17;10.35;;;2.10;;
52618;SDS011;38513;53.234;6.568;2023-05-16T08:18:43;11.55;;;2.05;;
52618;SDS011;38513;53.234;6.568;2023-05-16T08:21:09;10.23;;;1.88;;
52618;SDS011;38513;53.234;6.568;2023-05-16T08:23:37;5.50;;;1.20;;
52618;SDS011;38513;53.234;6.568;2023-05-16T08:26:06;9.93;;;2.00;;
52618;SDS011;38513;53.234;6.568;2023-05-16T08:28:32;7.57;;;1.58;;
52618;SDS011;38513;53.234;6.568;2023-05-16T08:30:58;10.57;;;1.98;;
52618;SDS011;38513;53.234;6.568;2023-05-16T08:33:24;11.63;;;2.10;;
52618;SDS011;38513;53.234;6.568;2023-05-16T08:35:50;10.93;;;1.98;;
52618;SDS011;38513;53.234;6.568;2023-05-16T08:38:17;12.57;;;2.58;;
52618;SDS011;38513;53.234;6.568;2023-05-16T08:40:43;11.88;;;2.22;;
52618;SDS011;38513;53.234;6.568;2023-05-16T08:43:09;13.10;;;2.50;;
52618;SDS011;38513;53.234;6.568;2023-05-16T08:45:39;12.25;;;2.65;;
52618;SDS011;38513;53.234;6.568;2023-05-16T08:48:06;14.90;;;2.63;;
52618;SDS011;38513;53.234;6.568;2023-05-16T08:50:39;12.98;;;2.45;;
52618;SDS011;38513;53.234;6.568;2023-05-16T08:53:07;12.93;;;2.30;;
52618;SDS011;38513;53.234;6.568;2023-05-16T08:55:34;12.13;;;2.70;;
52618;SDS011;38513;53.234;6.568;2023-05-16T08:58:03;16.58;;;3.17;;
52618;SDS011;38513;53.234;6.568;2023-05-16T09:00:30;10.15;;;1.92;;
52618;SDS011;38513;53.234;6.568;2023-05-16T09:02:56;11.05;;;2.00;;
52618;SDS011;38513;53.234;6.568;2023-05-16T09:05:23;13.15;;;2.30;;
52618;SDS011;38513;53.234;6.568;2023-05-16T09:07:49;11.32;;;2.10;;
52618;SDS011;38513;53.234;6.568;2023-05-16T09:10:15;12.13;;;2.03;;
52618;SDS011;38513;53.234;6.568;2023-05-16T09:12:41;11.05;;;2.15;;
52618;SDS011;38513;53.234;6.568;2023-05-16T09:15:10;10.10;;;2.20;;
52618;SDS011;38513;53.234;6.568;2023-05-16T09:17:37;14.05;;;2.58;;
52618;SDS011;38513;53.234;6.568;2023-05-16T09:22:36;14.50;;;2.40;;
52618;SDS011;38513;53.234;6.568;2023-05-16T09:25:09;13.32;;;2.40;;
52618;SDS011;38513;53.234;6.568;2023-05-16T09:27:41;13.30;;;2.60;;
52618;SDS011;38513;53.234;6.568;2023-05-16T09:30:12;9.68;;;2.13;;
52618;SDS011;38513;53.234;6.568;2023-05-16T09:32:42;9.90;;;1.88;;
52618;SDS011;38513;53.234;6.568;2023-05-16T09:35:09;8.70;;;1.60;;
52618;SDS011;38513;53.234;6.568;2023-05-16T09:37:36;9.65;;;1.60;;
52618;SDS011;38513;53.234;6.568;2023-05-16T09:40:02;9.63;;;1.55;;
52618;SDS011;38513;53.234;6.568;2023-05-16T09:42:29;9.07;;;1.70;;
52618;SDS011;38513;53.234;6.568;2023-05-16T09:44:56;11.45;;;1.90;;
52618;SDS011;38513;53.234;6.568;2023-05-16T09:47:22;11.07;;;2.03;;
52618;SDS011;38513;53.234;6.568;2023-05-16T09:49:52;12.50;;;2.45;;
52618;SDS011;38513;53.234;6.568;2023-05-16T09:52:19;12.60;;;2.60;;
52618;SDS011;38513;53.234;6.568;2023-05-16T09:54:45;12.18;;;2.30;;
52618;SDS011;38513;53.234;6.568;2023-05-16T09:57:18;13.88;;;2.58;;
52618;SDS011;38513;53.234;6.568;2023-05-16T09:59:44;13.10;;;2.45;;
52618;SDS011;38513;53.234;6.568;2023-05-16T10:02:10;15.97;;;2.70;;
52618;SDS011;38513;53.234;6.568;2023-05-16T10:04:37;13.32;;;2.35;;
52618;SDS011;38513;53.234;6.568;2023-05-16T10:07:04;14.38;;;2.50;;
52618;SDS011;38513;53.234;6.568;2023-05-16T10:09:33;10.02;;;2.20;;
52618;SDS011;38513;53.234;6.568;2023-05-16T10:12:01;12.10;;;2.30;;
52618;SDS011;38513;53.234;6.568;2023-05-16T10:14:29;10.98;;;2.35;;
52618;SDS011;38513;53.234;6.568;2023-05-16T10:16:56;12.38;;;2.58;;
52618;SDS011;38513;53.234;6.568;2023-05-16T10:19:22;13.50;;;2.45;;
52618;SDS011;38513;53.234;6.568;2023-05-16T10:21:52;11.70;;;2.17;;
52618;SDS011;38513;53.234;6.568;2023-05-16T10:24:21;9.07;;;1.87;;
52618;SDS011;38513;53.234;6.568;2023-05-16T10:26:49;11.48;;;2.30;;
52618;SDS011;38513;53.234;6.568;2023-05-16T10:29:17;10.40;;;1.90;;
52618;SDS011;38513;53.234;6.568;2023-05-16T10:31:43;11.93;;;2.25;;
52618;SDS011;38513;53.234;6.568;2023-05-16T10:34:09;11.77;;;1.98;;
52618;SDS011;38513;53.234;6.568;2023-05-16T10:36:36;11.93;;;2.30;;
52618;SDS011;38513;53.234;6.568;2023-05-16T10:39:03;11.27;;;2.03;;
52618;SDS011;38513;53.234;6.568;2023-05-16T10:41:31;11.65;;;2.10;;
52618;SDS011;38513;53.234;6.568;2023-05-16T10:43:57;11.43;;;2.40;;
52618;SDS011;38513;53.234;6.568;2023-05-16T10:46:26;12.35;;;1.85;;
52618;SDS011;38513;53.234;6.568;2023-05-16T10:48:55;13.60;;;2.30;;
52618;SDS011;38513;53.234;6.568;2023-05-16T10:51:34;14.85;;;2.85;;
52618;SDS011;38513;53.234;6.568;2023-05-16T10:54:04;10.88;;;2.03;;
52618;SDS011;38513;53.234;6.568;2023-05-16T10:56:31;11.80;;;2.13;;
52618;SDS011;38513;53.234;6.568;2023-05-16T10:58:59;11.23;;;2.40;;
52618;SDS011;38513;53.234;6.568;2023-05-16T11:01:34;9.98;;;2.22;;
52618;SDS011;38513;53.234;6.568;2023-05-16T11:04:05;12.32;;;2.30;;
52618;SDS011;38513;53.234;6.568;2023-05-16T11:06:45;12.60;;;2.35;;
52618;SDS011;38513;53.234;6.568;2023-05-16T11:22:07;8.88;;;1.90;;
52618;SDS011;38513;53.234;6.568;2023-05-16T11:24:38;11.82;;;2.50;;
52618;SDS011;38513;53.234;6.568;2023-05-16T11:27:04;14.38;;;2.40;;
52618;SDS011;38513;53.234;6.568;2023-05-16T11:29:32;11.15;;;2.20;;
52618;SDS011;38513;53.234;6.568;2023-05-16T11:31:59;8.93;;;2.22;;
52618;SDS011;38513;53.234;6.568;2023-05-16T11:34:25;11.20;;;2.20;;
52618;SDS011;38513;53.234;6.568;2023-05-16T11:36:52;13.82;;;2.90;;
52618;SDS011;38513;53.234;6.568;2023-05-16T11:39:21;11.20;;;2.85;;
52618;SDS011;38513;53.234;6.568;2023-05-16T11:41:50;12.15;;;2.40;;
52618;SDS011;38513;53.234;6.568;2023-05-16T11:44:16;11.20;;;2.50;;
52618;SDS011;38513;53.234;6.568;2023-05-16T11:46:43;12.98;;;3.00;;
52618;SDS011;38513;53.234;6.568;2023-05-16T11:49:09;12.18;;;2.42;;
52618;SDS011;38513;53.234;6.568;2023-05-16T11:51:39;11.88;;;2.28;;
52618;SDS011;38513;53.234;6.568;2023-05-16T11:54:08;12.73;;;2.67;;
52618;SDS011;38513;53.234;6.568;2023-05-16T11:56:34;14.33;;;2.70;;
52618;SDS011;38513;53.234;6.568;2023-05-16T11:59:04;11.07;;;2.72;;
52618;SDS011;38513;53.234;6.568;2023-05-16T12:01:33;12.70;;;3.03;;
52618;SDS011;38513;53.234;6.568;2023-05-16T12:04:00;11.82;;;2.88;;
52618;SDS011;38513;53.234;6.568;2023-05-16T12:06:27;11.85;;;2.85;;
52618;SDS011;38513;53.234;6.568;2023-05-16T12:08:55;12.40;;;3.10;;
52618;SDS011;38513;53.234;6.568;2023-05-16T12:11:22;10.27;;;2.75;;
52618;SDS011;38513;53.234;6.568;2023-05-16T12:13:52;13.90;;;3.08;;
52618;SDS011;38513;53.234;6.568;2023-05-16T12:16:18;13.88;;;3.15;;
52618;SDS011;38513;53.234;6.568;2023-05-16T12:18:44;13.13;;;3.00;;
52618;SDS011;38513;53.234;6.568;2023-05-16T12:21:11;10.27;;;2.83;;
52618;SDS011;38513;53.234;6.568;2023-05-16T12:23:37;12.82;;;3.20;;
52618;SDS011;38513;53.234;6.568;2023-05-16T12:26:03;12.90;;;2.95;;
52618;SDS011;38513;53.234;6.568;2023-05-16T12:28:31;11.38;;;3.00;;
52618;SDS011;38513;53.234;6.568;2023-05-16T12:31:10;14.57;;;3.40;;
52618;SDS011;38513;53.234;6.568;2023-05-16T12:33:36;16.13;;;3.53;;
52618;SDS011;38513;53.234;6.568;2023-05-16T12:36:03;14.05;;;3.47;;
52618;SDS011;38513;53.234;6.568;2023-05-16T12:38:29;12.07;;;3.13;;
52618;SDS011;38513;53.234;6.568;2023-05-16T12:40:57;16.02;;;3.40;;
52618;SDS011;38513;53.234;6.568;2023-05-16T12:43:23;11.82;;;3.90;;
52618;SDS011;38513;53.234;6.568;2023-05-16T12:45:54;11.07;;;3.47;;
52618;SDS011;38513;53.234;6.568;2023-05-16T12:48:20;10.75;;;3.30;;
52618;SDS011;38513;53.234;6.568;2023-05-16T12:50:47;13.47;;;4.13;;
52618;SDS011;38513;53.234;6.568;2023-05-16T12:53:14;11.48;;;4.03;;
52618;SDS011;38513;53.234;6.568;2023-05-16T12:55:41;10.43;;;3.70;;
52618;SDS011;38513;53.234;6.568;2023-05-16T12:58:10;11.85;;;3.72;;
52618;SDS011;38513;53.234;6.568;2023-05-16T13:00:37;10.45;;;4.03;;
52618;SDS011;38513;53.234;6.568;2023-05-16T13:03:06;10.43;;;3.60;;
52618;SDS011;38513;53.234;6.568;2023-05-16T13:05:33;12.55;;;3.80;;
52618;SDS011;38513;53.234;6.568;2023-05-16T13:08:00;12.98;;;3.70;;
52618;SDS011;38513;53.234;6.568;2023-05-16T13:10:26;11.10;;;3.35;;
52618;SDS011;38513;53.234;6.568;2023-05-16T13:12:53;9.30;;;3.50;;
52618;SDS011;38513;53.234;6.568;2023-05-16T13:15:23;12.23;;;3.58;;
52618;SDS011;38513;53.234;6.568;2023-05-16T13:17:50;11.93;;;3.95;;
52618;SDS011;38513;53.234;6.568;2023-05-16T13:20:16;9.50;;;3.25;;
52618;SDS011;38513;53.234;6.568;2023-05-16T13:22:47;9.05;;;2.88;;
52618;SDS011;38513;53.234;6.568;2023-05-16T13:25:13;11.88;;;2.97;;
52618;SDS011;38513;53.234;6.568;2023-05-16T13:27:40;10.67;;;2.87;;
52618;SDS011;38513;53.234;6.568;2023-05-16T13:30:07;9.07;;;3.30;;
52618;SDS011;38513;53.234;6.568;2023-05-16T13:32:36;8.45;;;3.03;;
52618;SDS011;38513;53.234;6.568;2023-05-16T13:35:02;9.73;;;3.03;;
52618;SDS011;38513;53.234;6.568;2023-05-16T13:37:29;9.48;;;3.25;;
52618;SDS011;38513;53.234;6.568;2023-05-16T13:39:55;8.23;;;3.35;;
52618;SDS011;38513;53.234;6.568;2023-05-16T13:42:22;8.80;;;3.53;;
52618;SDS011;38513;53.234;6.568;2023-05-16T13:44:48;9.73;;;3.70;;
52618;SDS011;38513;53.234;6.568;2023-05-16T13:47:14;9.25;;;3.33;;
52618;SDS011;38513;53.234;6.568;2023-05-16T13:49:40;10.48;;;3.45;;
52618;SDS011;38513;53.234;6.568;2023-05-16T13:52:07;9.93;;;3.50;;
52618;SDS011;38513;53.234;6.568;2023-05-16T13:54:36;9.98;;;3.55;;
52618;SDS011;38513;53.234;6.568;2023-05-16T13:57:04;11.50;;;4.07;;
52618;SDS011;38513;53.234;6.568;2023-05-16T13:59:32;12.18;;;4.13;;
52618;SDS011;38513;53.234;6.568;2023-05-16T14:01:59;8.05;;;4.00;;
52618;SDS011;38513;53.234;6.568;2023-05-16T14:04:27;10.38;;;4.07;;
52618;SDS011;38513;53.234;6.568;2023-05-16T14:06:53;11.07;;;3.90;;
52618;SDS011;38513;53.234;6.568;2023-05-16T14:09:20;9.77;;;3.38;;
52618;SDS011;38513;53.234;6.568;2023-05-16T14:11:46;9.73;;;3.10;;
52618;SDS011;38513;53.234;6.568;2023-05-16T14:14:13;9.90;;;3.20;;
52618;SDS011;38513;53.234;6.568;2023-05-16T14:16:39;9.63;;;3.65;;
52618;SDS011;38513;53.234;6.568;2023-05-16T14:19:10;7.85;;;3.38;;
52618;SDS011;38513;53.234;6.568;2023-05-16T14:21:36;11.60;;;3.45;;
52618;SDS011;38513;53.234;6.568;2023-05-16T14:24:03;12.38;;;3.67;;
52618;SDS011;38513;53.234;6.568;2023-05-16T14:26:29;10.35;;;3.42;;
52618;SDS011;38513;53.234;6.568;2023-05-16T14:28:56;9.93;;;3.40;;
52618;SDS011;38513;53.234;6.568;2023-05-16T14:31:22;9.73;;;3.08;;
52618;SDS011;38513;53.234;6.568;2023-05-16T14:33:56;9.43;;;3.13;;
52618;SDS011;38513;53.234;6.568;2023-05-16T14:36:23;8.30;;;2.35;;
52618;SDS011;38513;53.234;6.568;2023-05-16T14:38:51;9.45;;;3.17;;
52618;SDS011;38513;53.234;6.568;2023-05-16T14:41:17;8.98;;;3.25;;
52618;SDS011;38513;53.234;6.568;2023-05-16T14:43:43;9.13;;;2.80;;
52618;SDS011;38513;53.234;6.568;2023-05-16T14:46:10;8.27;;;3.13;;
52618;SDS011;38513;53.234;6.568;2023-05-16T14:48:36;10.20;;;2.95;;
52618;SDS011;38513;53.234;6.568;2023-05-16T14:51:05;9.80;;;3.35;;
52618;SDS011;38513;53.234;6.568;2023-05-16T14:53:32;11.95;;;3.25;;
52618;SDS011;38513;53.234;6.568;2023-05-16T14:55:58;10.02;;;2.78;;
52618;SDS011;38513;53.234;6.568;2023-05-16T14:58:26;11.13;;;3.25;;